Time;durP1;ratioP1;P1;durP2;ratioP2;P2;SDS_P1;SDS_P2;PMS_P1;PMS_P2;Temp;Humidity;BMP_temperature;BMP_pressure;BME280_temperature;BME280_humidity;BME280_pressure;Samples;Min_cycle;Max_cycle;Signal;HPM_P1;HPM_P2
2023/11/19 00:00:04;;;;;;;0.70;0.30;;;;;;;8.60;100.00;93023.53;2081809;28;20033;-86
2023/11/19 00:01:05;;;;;;;0.20;0.20;;;;;;;8.66;100.00;93011.28;2090187;28;20024;-86
2023/11/19 00:02:08;;;;;;;0.20;0.20;;;;;;;8.64;100.00;93018.91;2089658;28;20040;-86
2023/11/19 00:03:12;;;;;;;0.25;0.25;;;;;;;8.80;100.00;93003.03;2089961;28;20709;-86
2023/11/19 00:04:13;;;;;;;0.20;0.20;;;;;;;8.74;100.00;93018.00;2104549;28;20027;-85
2023/11/19 00:05:21;;;;;;;0.77;0.40;;;;;;;8.63;100.00;93022.75;2098067;28;20037;-85
2023/11/19 00:06:22;;;;;;;0.25;0.20;;;;;;;8.65;100.00;93029.19;2098246;28;20059;-86
2023/11/19 00:07:23;;;;;;;2.22;0.20;;;;;;;8.71;100.00;93024.13;2105091;28;20024;-87
2023/11/19 00:08:24;;;;;;;0.20;0.20;;;;;;;8.86;100.00;93025.41;2114297;28;20047;-85
2023/11/19 00:09:25;;;;;;;0.10;0.10;;;;;;;8.83;100.00;93032.31;2097725;28;20028;-87
2023/11/19 00:10:26;;;;;;;0.20;0.10;;;;;;;8.85;100.00;93031.13;2088801;28;20021;-86
2023/11/19 00:11:27;;;;;;;0.13;0.10;;;;;;;9.00;100.00;93041.16;2088861;28;20582;-86
2023/11/19 00:12:29;;;;;;;0.10;0.10;;;;;;;9.04;100.00;93030.41;2088997;28;20063;-86
2023/11/19 00:13:30;;;;;;;0.30;0.10;;;;;;;8.94;100.00;93032.13;2086707;28;20029;-88
2023/11/19 00:14:31;;;;;;;1.77;0.20;;;;;;;8.87;100.00;93036.81;2086032;28;20109;-86
2023/11/19 00:15:32;;;;;;;0.10;0.10;;;;;;;8.78;100.00;93032.00;2088965;28;20099;-86
2023/11/19 00:16:32;;;;;;;2.55;0.20;;;;;;;8.71;100.00;93024.88;2090230;28;20051;-85
2023/11/19 00:17:34;;;;;;;0.20;0.20;;;;;;;8.70;100.00;93025.31;2081932;28;20499;-85
2023/11/19 00:18:36;;;;;;;1.45;0.10;;;;;;;8.63;100.00;93033.41;2090226;28;20028;-86
2023/11/19 00:19:36;;;;;;;0.17;0.17;;;;;;;8.78;100.00;93024.78;2089520;28;20040;-85
2023/11/19 00:20:38;;;;;;;1.13;0.43;;;;;;;8.76;100.00;93024.41;2090153;28;20025;-85
2023/11/19 00:21:41;;;;;;;1.27;0.50;;;;;;;8.86;100.00;93025.41;2090053;28;20493;-84
2023/11/19 00:22:42;;;;;;;0.80;0.52;;;;;;;8.84;100.00;93009.06;2090125;28;20056;-83
2023/11/19 00:23:43;;;;;;;0.20;0.20;;;;;;;9.05;100.00;93018.63;2089927;28;20025;-85
2023/11/19 00:24:44;;;;;;;0.20;0.20;;;;;;;8.99;100.00;93006.91;2089840;28;20459;-85
2023/11/19 00:25:47;;;;;;;0.90;0.50;;;;;;;8.86;100.00;93017.41;2084754;28;20025;-86
2023/11/19 00:26:52;;;;;;;0.82;0.30;;;;;;;8.96;100.00;93013.06;2083414;28;20029;-85
2023/11/19 00:27:53;;;;;;;0.20;0.20;;;;;;;8.99;100.00;93002.31;2090711;28;20031;-85
2023/11/19 00:28:56;;;;;;;0.55;0.20;;;;;;;8.81;100.00;93002.63;2090056;28;20021;-86
2023/11/19 00:29:56;;;;;;;0.13;0.10;;;;;;;8.82;100.00;93006.81;2090867;28;20116;-85
2023/11/19 00:31:08;;;;;;;0.55;0.10;;;;;;;8.91;100.00;92981.53;2097429;28;20369;-85
2023/11/19 00:32:11;;;;;;;0.20;0.20;;;;;;;8.73;100.00;92974.59;2093281;28;20658;-87
2023/11/19 00:33:12;;;;;;;0.20;0.20;;;;;;;8.90;100.00;92980.78;2098305;28;20035;-87
2023/11/19 00:34:13;;;;;;;0.40;0.40;;;;;;;8.93;100.00;92981.88;2100235;28;20119;-85
2023/11/19 00:35:14;;;;;;;2.15;0.28;;;;;;;8.96;100.00;92970.41;2098357;28;20016;-85
2023/11/19 00:36:18;;;;;;;1.27;0.20;;;;;;;8.96;100.00;92975.75;2098088;28;20373;-85
2023/11/19 00:37:19;;;;;;;0.68;0.50;;;;;;;9.01;100.00;92972.59;2090292;28;20132;-86
2023/11/19 00:38:20;;;;;;;1.85;0.40;;;;;;;8.95;100.00;92968.88;2090145;28;20416;-87
2023/11/19 00:39:21;;;;;;;0.90;0.70;;;;;;;9.02;100.00;92961.53;2090002;28;20484;-85
2023/11/19 00:40:22;;;;;;;0.65;0.50;;;;;;;8.99;100.00;92958.91;2086921;28;20081;-86
2023/11/19 00:41:25;;;;;;;0.20;0.20;;;;;;;8.99;100.00;92945.59;2097253;28;20540;-85
2023/11/19 00:42:26;;;;;;;0.50;0.22;;;;;;;8.95;100.00;92947.56;2090400;28;20033;-88
2023/11/19 00:43:27;;;;;;;0.68;0.30;;;;;;;9.17;100.00;92947.91;2096224;28;20028;-88
2023/11/19 00:44:28;;;;;;;1.77;0.40;;;;;;;9.14;100.00;92935.44;2098147;28;20020;-87
2023/11/19 00:45:29;;;;;;;0.63;0.40;;;;;;;9.05;100.00;92942.06;2098159;28;20441;-87
2023/11/19 00:46:31;;;;;;;1.48;0.60;;;;;;;9.04;100.00;92939.78;2098295;28;20031;-86
2023/11/19 00:47:32;;;;;;;1.52;0.90;;;;;;;9.11;100.00;92928.97;2090204;28;20120;-85
2023/11/19 00:48:32;;;;;;;0.45;0.38;;;;;;;9.14;100.00;92922.09;2106518;28;20515;-85
2023/11/19 00:49:34;;;;;;;0.77;0.55;;;;;;;9.27;100.00;92936.31;2106635;28;20488;-87
2023/11/19 00:50:34;;;;;;;1.80;0.70;;;;;;;9.20;100.00;92937.19;2106433;28;20107;-85
2023/11/19 00:51:35;;;;;;;0.70;0.40;;;;;;;9.37;100.00;92943.34;2104832;28;20047;-86
2023/11/19 00:52:37;;;;;;;0.52;0.40;;;;;;;9.31;100.00;92935.06;2081539;28;20414;-87
2023/11/19 00:53:38;;;;;;;0.60;0.28;;;;;;;9.31;100.00;92931.66;2081892;28;20025;-87
2023/11/19 00:54:39;;;;;;;0.32;0.20;;;;;;;9.28;100.00;92937.81;2089995;28;20496;-88
2023/11/19 00:55:40;;;;;;;0.47;0.40;;;;;;;9.17;100.00;92926.59;2105860;28;20684;-84
2023/11/19 00:56:41;;;;;;;3.03;0.70;;;;;;;9.21;100.00;92930.69;2098183;28;20471;-86
2023/11/19 00:57:42;;;;;;;0.30;0.30;;;;;;;9.43;100.00;92935.59;2100718;28;20020;-87
2023/11/19 00:58:43;;;;;;;0.90;0.32;;;;;;;9.28;100.00;92929.81;2106727;28;20106;-85
2023/11/19 00:59:45;;;;;;;0.60;0.40;;;;;;;9.25;100.00;92927.94;2098380;28;20024;-86
2023/11/19 01:00:46;;;;;;;0.60;0.40;;;;;;;9.30;100.00;92938.88;2090071;28;20478;-85
2023/11/19 01:01:51;;;;;;;0.30;0.30;;;;;;;9.28;100.00;92945.81;2082630;28;20026;-85
2023/11/19 01:02:51;;;;;;;0.60;0.40;;;;;;;9.29;100.00;92937.38;2082644;28;20031;-86
2023/11/19 01:03:52;;;;;;;0.43;0.30;;;;;;;9.31;100.00;92937.75;2089276;28;20028;-86
2023/11/19 01:04:53;;;;;;;0.20;0.20;;;;;;;9.33;100.00;92930.06;2099537;28;20063;-85
2023/11/19 01:05:54;;;;;;;1.02;0.47;;;;;;;9.32;100.00;92927.81;2107003;28;20055;-85
2023/11/19 01:06:55;;;;;;;1.75;0.60;;;;;;;9.36;100.00;92938.44;2097874;28;20027;-85
2023/11/19 01:07:56;;;;;;;0.60;0.40;;;;;;;9.23;100.00;92938.28;2089127;28;20044;-85
2023/11/19 01:08:58;;;;;;;0.30;0.20;;;;;;;9.27;100.00;92934.38;2089915;28;20025;-87
2023/11/19 01:09:59;;;;;;;0.25;0.25;;;;;;;9.41;100.00;92933.34;2090157;28;20170;-85
2023/11/19 01:11:00;;;;;;;0.40;0.30;;;;;;;9.35;100.00;92924.34;2093792;28;20074;-85
2023/11/19 01:12:02;;;;;;;0.90;0.40;;;;;;;9.41;100.00;92922.69;2097594;28;20024;-85
2023/11/19 01:13:05;;;;;;;0.43;0.43;;;;;;;9.26;100.00;92922.22;2106412;28;20084;-86
2023/11/19 01:14:06;;;;;;;1.05;0.47;;;;;;;9.15;100.00;92920.91;2089932;28;20044;-85
2023/11/19 01:15:08;;;;;;;0.52;0.35;;;;;;;9.44;100.00;92929.09;2091494;28;20020;-86
2023/11/19 01:16:09;;;;;;;0.20;0.20;;;;;;;9.34;100.00;92917.47;2098150;28;20090;-84
2023/11/19 01:17:12;;;;;;;0.43;0.20;;;;;;;9.45;100.00;92934.03;2095857;28;20032;-86
2023/11/19 01:18:13;;;;;;;0.30;0.20;;;;;;;9.47;100.00;92933.59;2097216;28;20025;-85
2023/11/19 01:19:14;;;;;;;0.13;0.13;;;;;;;9.48;100.00;92929.78;2092573;28;20052;-85
2023/11/19 01:20:15;;;;;;;3.40;0.35;;;;;;;9.40;100.00;92923.84;2023686;28;23179;-84
2023/11/19 01:21:16;;;;;;;0.70;0.20;;;;;;;9.34;100.00;92926.22;2024698;28;20031;-87
2023/11/19 01:22:18;;;;;;;0.30;0.30;;;;;;;9.44;100.00;92921.09;2032872;28;20449;-85
2023/11/19 01:23:19;;;;;;;0.82;0.20;;;;;;;9.45;100.00;92926.03;2040059;28;20032;-85
2023/11/19 01:24:21;;;;;;;0.28;0.28;;;;;;;9.34;100.00;92910.22;2044201;28;22252;-85
2023/11/19 01:25:22;;;;;;;0.32;0.30;;;;;;;9.28;100.00;92916.47;2050390;28;20025;-85
2023/11/19 01:26:23;;;;;;;0.32;0.32;;;;;;;9.39;100.00;92918.91;2049625;28;20508;-87
2023/11/19 01:27:24;;;;;;;0.30;0.22;;;;;;;9.33;100.00;92919.41;2068229;28;20032;-85
2023/11/19 01:28:25;;;;;;;1.20;0.30;;;;;;;9.35;100.00;92911.00;2083868;28;20058;-85
2023/11/19 01:29:26;;;;;;;1.00;0.20;;;;;;;9.43;100.00;92923.00;2092514;28;20024;-86
2023/11/19 01:30:27;;;;;;;0.50;0.30;;;;;;;9.29;100.00;92920.63;2094092;28;20121;-85
2023/11/19 01:31:28;;;;;;;0.38;0.30;;;;;;;9.19;100.00;92916.28;2088956;28;20083;-86
2023/11/19 01:32:29;;;;;;;4.20;0.47;;;;;;;9.19;100.00;92908.28;2097776;28;20606;-86
2023/11/19 01:33:30;;;;;;;0.77;0.40;;;;;;;9.25;100.00;92902.03;2106183;28;20052;-88
2023/11/19 01:34:32;;;;;;;0.98;0.38;;;;;;;9.25;100.00;92907.38;2107520;28;20452;-86
2023/11/19 01:35:33;;;;;;;0.88;0.20;;;;;;;9.32;100.00;92911.81;2089612;28;20738;-87
2023/11/19 01:36:34;;;;;;;0.47;0.20;;;;;;;9.39;100.00;92921.56;2089825;28;20028;-85
2023/11/19 01:37:36;;;;;;;1.02;0.30;;;;;;;9.28;100.00;92921.81;2081411;28;20116;-84
2023/11/19 01:38:37;;;;;;;0.95;0.30;;;;;;;9.33;100.00;92914.06;2081744;28;20029;-86
2023/11/19 01:39:38;;;;;;;0.40;0.32;;;;;;;9.42;100.00;92918.84;2089726;28;20028;-86
2023/11/19 01:40:39;;;;;;;0.30;0.30;;;;;;;9.39;100.00;92925.00;2089847;28;20021;-87
2023/11/19 01:41:40;;;;;;;1.85;0.40;;;;;;;9.42;100.00;92910.09;2093569;28;20024;-85
2023/11/19 01:42:41;;;;;;;0.30;0.20;;;;;;;9.58;100.00;92915.47;2089682;28;20588;-86
2023/11/19 01:43:42;;;;;;;0.32;0.30;;;;;;;9.49;100.00;92917.97;2089013;28;20024;-83
2023/11/19 01:44:57;;;;;;;0.20;0.20;;;;;;;9.45;100.00;92914.59;2082668;28;20029;-86
2023/11/19 01:45:58;;;;;;;0.30;0.30;;;;;;;9.41;100.00;92922.69;2097472;28;20028;-87
2023/11/19 01:46:59;;;;;;;0.20;0.20;;;;;;;9.30;100.00;92914.88;2063228;28;20104;-85
2023/11/19 01:48:06;;;;;;;0.30;0.20;;;;;;;9.31;100.00;92902.31;2011065;28;20029;-85
2023/11/19 01:49:08;;;;;;;0.85;0.30;;;;;;;9.36;100.00;92909.09;2015822;28;20143;-85
2023/11/19 01:50:09;;;;;;;0.63;0.40;;;;;;;9.44;100.00;92902.41;2029192;28;20028;-87
2023/11/19 01:51:12;;;;;;;0.63;0.30;;;;;;;9.46;100.00;92902.75;2029536;28;20040;-85
2023/11/19 01:52:13;;;;;;;0.38;0.30;;;;;;;9.45;100.00;92898.59;2034779;28;20033;-85
2023/11/19 01:53:21;;;;;;;0.30;0.30;;;;;;;9.43;100.00;92901.66;2035235;28;20044;-83
2023/11/19 01:54:22;;;;;;;0.30;0.30;;;;;;;9.55;100.00;92913.63;2045497;28;20151;-83
2023/11/19 01:55:28;;;;;;;0.63;0.40;;;;;;;9.50;100.00;92909.53;2047506;28;21274;-86
2023/11/19 01:56:30;;;;;;;0.90;0.20;;;;;;;9.60;100.00;92913.13;2049001;28;20033;-86
2023/11/19 01:57:31;;;;;;;0.20;0.20;;;;;;;9.86;100.00;92914.09;2062727;28;20025;-85
2023/11/19 01:58:32;;;;;;;0.10;0.10;;;;;;;9.74;100.00;92915.50;2072640;28;20028;-86
2023/11/19 01:59:33;;;;;;;0.10;0.10;;;;;;;9.61;100.00;92911.22;2093110;28;20028;-86
2023/11/19 02:00:34;;;;;;;0.10;0.10;;;;;;;9.66;100.00;92908.81;2105936;28;20028;-86
2023/11/19 02:01:39;;;;;;;0.32;0.20;;;;;;;9.65;100.00;92919.91;2089407;28;20021;-85
2023/11/19 02:02:40;;;;;;;0.65;0.20;;;;;;;9.74;100.00;92917.41;2090405;28;20029;-84
2023/11/19 02:03:42;;;;;;;0.20;0.20;;;;;;;9.79;100.00;92903.59;2095271;28;20552;-85
2023/11/19 02:04:43;;;;;;;1.38;0.30;;;;;;;9.64;100.00;92911.13;2095660;28;20476;-84
2023/11/19 02:05:44;;;;;;;0.20;0.20;;;;;;;9.73;100.00;92923.91;2097769;28;20028;-87
2023/11/19 02:06:48;;;;;;;0.10;0.10;;;;;;;9.66;100.00;92919.50;2097794;28;20048;-86
2023/11/19 02:07:51;;;;;;;0.40;0.20;;;;;;;9.64;100.00;92923.72;2088760;28;20029;-87
2023/11/19 02:08:52;;;;;;;0.10;0.10;;;;;;;9.68;100.00;92922.50;2094036;28;20020;-86
2023/11/19 02:09:53;;;;;;;0.38;0.20;;;;;;;9.80;100.00;92924.53;2089293;28;20117;-86
2023/11/19 02:10:57;;;;;;;0.10;0.10;;;;;;;9.72;100.00;92917.09;2089610;28;20029;-85
2023/11/19 02:11:58;;;;;;;0.10;0.10;;;;;;;9.67;100.00;92915.66;2090312;28;20111;-88
2023/11/19 02:13:00;;;;;;;0.10;0.10;;;;;;;9.62;100.00;92913.47;2097382;28;20028;-86
2023/11/19 02:14:03;;;;;;;0.10;0.10;;;;;;;9.83;100.00;92922.94;2097903;28;20715;-85
2023/11/19 02:15:04;;;;;;;1.88;0.10;;;;;;;9.74;100.00;92910.16;2089771;28;20021;-87
2023/11/19 02:16:06;;;;;;;0.90;0.30;;;;;;;9.66;100.00;92906.16;2089362;28;20570;-88
2023/11/19 02:17:25;;;;;;;0.20;0.20;;;;;;;9.50;100.00;92903.44;2097197;28;20504;-84
2023/11/19 02:18:27;;;;;;;0.30;0.30;;;;;;;9.33;100.00;92898.06;2085890;28;20029;-84
2023/11/19 02:19:29;;;;;;;0.47;0.32;;;;;;;9.39;100.00;92898.31;2085719;28;20112;-87
2023/11/19 02:20:30;;;;;;;0.10;0.10;;;;;;;9.61;100.00;92903.97;2080358;28;20021;-86
2023/11/19 02:21:30;;;;;;;0.10;0.10;;;;;;;9.52;100.00;92901.84;2089435;28;20499;-85
2023/11/19 02:24:36;;;;;;;;;;;;;;;9.14;100.00;92906.84;2141471;27;20646;-83
2023/11/19 02:25:39;;;;;;;0.20;0.10;;;;;;;9.15;100.00;92892.34;2124078;27;20387;-82
2023/11/19 02:26:59;;;;;;;0.10;0.10;;;;;;;9.33;100.00;92894.66;2121758;27;20034;-80
2023/11/19 02:28:02;;;;;;;0.10;0.10;;;;;;;9.45;100.00;92890.59;2121790;28;20498;-82
2023/11/19 02:29:02;;;;;;;1.00;0.20;;;;;;;9.33;100.00;92881.31;2130754;27;20100;-80
2023/11/19 02:30:06;;;;;;;0.20;0.20;;;;;;;9.37;100.00;92876.66;2130134;27;20022;-82
2023/11/19 02:31:10;;;;;;;0.25;0.20;;;;;;;9.47;100.00;92883.66;2130695;27;20018;-82
2023/11/19 02:32:16;;;;;;;0.32;0.13;;;;;;;9.54;100.00;92885.44;2120741;28;20054;-81
2023/11/19 02:33:17;;;;;;;1.08;0.20;;;;;;;9.40;100.00;92888.44;2114157;27;20031;-83
2023/11/19 02:34:17;;;;;;;0.10;0.10;;;;;;;9.36;100.00;92891.16;2112886;28;20080;-81
2023/11/19 02:35:19;;;;;;;0.10;0.10;;;;;;;9.32;100.00;92880.56;2113139;28;20028;-84
2023/11/19 02:36:21;;;;;;;0.10;0.10;;;;;;;9.25;100.00;92885.28;2121574;27;20015;-81
2023/11/19 02:37:23;;;;;;;0.10;0.10;;;;;;;9.18;100.00;92880.84;2121465;28;20477;-84
2023/11/19 02:38:24;;;;;;;0.10;0.10;;;;;;;9.29;100.00;92891.28;2113096;28;20157;-83
2023/11/19 02:39:26;;;;;;;0.10;0.10;;;;;;;9.29;100.00;92872.63;2113222;28;20540;-84
2023/11/19 02:40:27;;;;;;;0.10;0.10;;;;;;;9.28;100.00;92874.53;2113380;28;20026;-81
2023/11/19 02:41:28;;;;;;;0.75;0.75;;;;;;;9.35;100.00;92889.66;2113257;28;20039;-80
2023/11/19 02:42:29;;;;;;;0.32;0.10;;;;;;;9.26;100.00;92887.56;2113011;28;20499;-81
2023/11/19 02:43:33;;;;;;;0.25;0.20;;;;;;;9.35;100.00;92895.00;2104587;28;20028;-81
2023/11/19 02:44:34;;;;;;;2.05;0.20;;;;;;;9.37;100.00;92895.31;2113196;28;20020;-84
2023/11/19 02:45:35;;;;;;;0.10;0.10;;;;;;;9.40;100.00;92905.19;2122103;27;20452;-79
2023/11/19 02:46:36;;;;;;;0.20;0.20;;;;;;;9.37;100.00;92902.56;2121334;28;20038;-81
2023/11/19 02:47:37;;;;;;;0.10;0.10;;;;;;;9.37;100.00;92898.00;2110904;28;20028;-81
2023/11/19 02:48:38;;;;;;;0.60;0.22;;;;;;;9.36;100.00;92899.16;2121412;27;20049;-80
2023/11/19 02:49:39;;;;;;;0.60;0.17;;;;;;;9.32;100.00;92903.81;2124191;27;20102;-82
2023/11/19 02:50:41;;;;;;;0.20;0.10;;;;;;;9.28;100.00;92905.81;2124219;27;20023;-80
2023/11/19 02:51:42;;;;;;;0.10;0.10;;;;;;;9.27;100.00;92906.97;2111392;28;20049;-83
2023/11/19 02:52:45;;;;;;;0.20;0.20;;;;;;;9.35;100.00;92913.66;2104390;28;20093;-80
2023/11/19 02:53:48;;;;;;;1.65;0.45;;;;;;;9.44;100.00;92913.88;2115852;27;20028;-79
2023/11/19 02:54:49;;;;;;;0.10;0.10;;;;;;;9.40;100.00;92905.19;2120560;28;20027;-80
2023/11/19 02:55:50;;;;;;;0.63;0.20;;;;;;;9.35;100.00;92892.34;2113580;28;20354;-79
2023/11/19 02:56:55;;;;;;;0.13;0.10;;;;;;;9.25;100.00;92895.94;2116851;27;20058;-81
2023/11/19 02:57:59;;;;;;;1.10;0.10;;;;;;;9.21;100.00;92896.00;2112475;28;20032;-81
2023/11/19 02:59:03;;;;;;;0.10;0.10;;;;;;;9.34;100.00;92888.13;2104940;28;20101;-82
2023/11/19 03:00:12;;;;;;;0.22;0.20;;;;;;;9.30;100.00;92904.22;2103244;28;20024;-83
2023/11/19 03:01:22;;;;;;;0.20;0.20;;;;;;;9.36;100.00;92901.84;2098449;28;20017;-79
2023/11/19 03:02:26;;;;;;;3.13;0.20;;;;;;;9.19;100.00;92889.59;2109478;27;20099;-80
2023/11/19 03:03:53;;;;;;;0.22;0.20;;;;;;;9.26;100.00;92892.88;2120297;27;20030;-80
2023/11/19 03:04:48;;;;;;;0.10;0.10;;;;;;;9.24;100.00;92884.53;2127500;27;20122;-83
2023/11/19 03:05:49;;;;;;;0.32;0.10;;;;;;;9.03;100.00;92884.97;2113192;28;20423;-80
2023/11/19 03:06:50;;;;;;;1.50;0.20;;;;;;;8.99;100.00;92886.94;2110636;28;20073;-80
2023/11/19 03:07:51;;;;;;;0.10;0.10;;;;;;;9.06;100.00;92900.88;2119281;28;20086;-80
2023/11/19 03:08:54;;;;;;;2.15;0.13;;;;;;;9.07;100.00;92906.97;2106607;28;20031;-82
2023/11/19 03:09:55;;;;;;;0.10;0.10;;;;;;;9.04;100.00;92897.91;2112137;28;20078;-85
2023/11/19 03:10:56;;;;;;;2.75;0.10;;;;;;;9.13;100.00;92899.22;2124996;27;20459;-80
2023/11/19 03:11:57;;;;;;;0.13;0.13;;;;;;;9.10;100.00;92887.50;2130325;27;20375;-82
2023/11/19 03:12:59;;;;;;;0.85;0.10;;;;;;;9.19;100.00;92892.28;2129483;27;20052;-84
2023/11/19 03:14:00;;;;;;;0.20;0.20;;;;;;;9.19;100.00;92900.28;2125538;27;20043;-80
2023/11/19 03:15:01;;;;;;;0.55;0.20;;;;;;;9.14;100.00;92890.09;2121118;27;20023;-83
2023/11/19 03:16:02;;;;;;;0.65;0.20;;;;;;;9.09;100.00;92896.66;2113031;27;20533;-81
2023/11/19 03:17:04;;;;;;;0.30;0.10;;;;;;;9.06;100.00;92902.81;2126683;27;20056;-81
2023/11/19 03:18:05;;;;;;;0.20;0.20;;;;;;;9.11;100.00;92897.00;2117096;28;20035;-81
2023/11/19 03:19:06;;;;;;;0.10;0.10;;;;;;;9.24;100.00;92892.53;2105793;27;20020;-79
2023/11/19 03:20:09;;;;;;;0.10;0.10;;;;;;;9.25;100.00;92878.03;2127221;27;20527;-81
2023/11/19 03:21:10;;;;;;;0.10;0.10;;;;;;;9.14;100.00;92869.50;2125975;27;20029;-83
2023/11/19 03:22:11;;;;;;;0.20;0.20;;;;;;;9.20;100.00;92867.84;2110177;28;20500;-81
2023/11/19 03:23:12;;;;;;;0.20;0.20;;;;;;;9.14;100.00;92868.75;2112782;27;20042;-81
2023/11/19 03:24:13;;;;;;;0.52;0.10;;;;;;;9.13;100.00;92873.34;2112278;28;20071;-77
2023/11/19 03:25:14;;;;;;;0.10;0.10;;;;;;;9.21;100.00;92860.59;2104375;28;20079;-81
2023/11/19 03:26:17;;;;;;;0.10;0.10;;;;;;;9.21;100.00;92874.69;2106967;28;20024;-80
2023/11/19 03:27:18;;;;;;;0.10;0.10;;;;;;;9.28;100.00;92879.88;2104335;28;20024;-80
2023/11/19 03:28:18;;;;;;;1.13;0.20;;;;;;;9.25;100.00;92877.28;2114048;27;20368;-82
2023/11/19 03:29:19;;;;;;;0.38;0.20;;;;;;;9.17;100.00;92886.59;2130228;27;20091;-81
2023/11/19 03:30:20;;;;;;;0.10;0.10;;;;;;;9.13;100.00;92886.69;2130226;27;20023;-79
2023/11/19 03:31:21;;;;;;;0.30;0.10;;;;;;;9.24;100.00;92889.88;2126319;27;20085;-79
2023/11/19 03:32:22;;;;;;;0.10;0.10;;;;;;;9.24;100.00;92900.53;2120169;27;20028;-78
2023/11/19 03:33:25;;;;;;;0.10;0.10;;;;;;;9.24;100.00;92883.78;2120614;27;20110;-80
2023/11/19 03:34:26;;;;;;;0.10;0.10;;;;;;;9.23;100.00;92896.38;2112698;28;20023;-80
2023/11/19 03:35:27;;;;;;;0.10;0.10;;;;;;;9.27;100.00;92883.72;2108437;28;20044;-81
2023/11/19 03:36:35;;;;;;;0.10;0.10;;;;;;;9.40;100.00;92886.50;2115964;28;20069;-78
2023/11/19 03:37:36;;;;;;;0.10;0.10;;;;;;;9.39;100.00;92881.56;2115516;28;20472;-81
2023/11/19 03:38:37;;;;;;;0.20;0.20;;;;;;;9.43;100.00;92887.56;2115360;28;20031;-80
2023/11/19 03:39:38;;;;;;;0.10;0.10;;;;;;;9.34;100.00;92888.13;2106999;28;20542;-83
2023/11/19 03:40:39;;;;;;;0.40;0.20;;;;;;;9.29;100.00;92880.63;2090495;28;20621;-81
2023/11/19 03:41:41;;;;;;;0.10;0.10;;;;;;;9.34;100.00;92894.22;2090764;28;20025;-82
2023/11/19 03:42:42;;;;;;;2.20;0.10;;;;;;;9.29;100.00;92891.28;2090299;28;20032;-81
2023/11/19 03:43:43;;;;;;;0.93;0.20;;;;;;;9.29;100.00;92888.63;2098516;28;20517;-83
2023/11/19 03:44:44;;;;;;;0.15;0.15;;;;;;;9.32;100.00;92896.56;2105948;28;20032;-82
2023/11/19 03:45:46;;;;;;;1.45;0.30;;;;;;;9.22;100.00;92880.75;2098695;28;20076;-79
2023/11/19 03:46:47;;;;;;;0.20;0.10;;;;;;;9.25;100.00;92899.38;2098470;28;20029;-78
2023/11/19 03:47:49;;;;;;;0.20;0.20;;;;;;;9.45;100.00;92893.28;2118995;27;20069;-80
2023/11/19 03:48:51;;;;;;;0.20;0.10;;;;;;;9.53;100.00;92892.69;2110097;28;20058;-81
2023/11/19 03:49:52;;;;;;;0.10;0.10;;;;;;;9.36;100.00;92895.75;2112071;28;20027;-81
2023/11/19 03:50:53;;;;;;;1.77;0.10;;;;;;;9.59;100.00;92891.03;2110734;28;20029;-82
2023/11/19 03:51:54;;;;;;;0.10;0.10;;;;;;;9.46;100.00;92898.19;2115418;28;20022;-81
2023/11/19 03:52:55;;;;;;;0.10;0.10;;;;;;;9.53;100.00;92905.28;2106776;28;20066;-78
2023/11/19 03:53:55;;;;;;;0.13;0.13;;;;;;;9.38;100.00;92893.41;2106907;28;20028;-80
2023/11/19 03:54:57;;;;;;;0.10;0.10;;;;;;;9.33;100.00;92891.97;2114691;28;20019;-81
2023/11/19 03:55:58;;;;;;;1.58;0.32;;;;;;;9.29;100.00;92894.72;2121016;27;20023;-81
2023/11/19 03:57:00;;;;;;;1.00;0.13;;;;;;;9.34;100.00;92883.56;2123039;27;20452;-81
2023/11/19 03:58:01;;;;;;;0.10;0.10;;;;;;;9.25;100.00;92883.38;2106849;28;20023;-82
2023/11/19 03:59:02;;;;;;;0.20;0.10;;;;;;;9.48;100.00;92895.09;2097615;28;20028;-81
2023/11/19 04:00:09;;;;;;;0.10;0.10;;;;;;;9.39;100.00;92895.66;2106687;28;20408;-78
2023/11/19 04:01:13;;;;;;;0.10;0.10;;;;;;;9.25;100.00;92898.63;2115283;28;20465;-83
2023/11/19 04:02:15;;;;;;;2.40;0.52;;;;;;;9.26;100.00;92898.22;2106760;28;20093;-80
2023/11/19 04:03:16;;;;;;;0.30;0.30;;;;;;;9.24;100.00;92905.88;2098751;28;20479;-80
2023/11/19 04:04:18;;;;;;;0.10;0.10;;;;;;;9.38;100.00;92896.81;2106675;28;20020;-82
2023/11/19 04:05:19;;;;;;;0.10;0.10;;;;;;;9.37;100.00;92902.56;2115431;27;20020;-78
2023/11/19 04:06:21;;;;;;;1.67;0.15;;;;;;;9.28;100.00;92908.47;2115106;28;20059;-80
2023/11/19 04:07:22;;;;;;;0.32;0.10;;;;;;;9.33;100.00;92911.41;2106866;28;20492;-80
2023/11/19 04:08:23;;;;;;;0.15;0.10;;;;;;;9.24;100.00;92921.13;2115489;27;20031;-83
2023/11/19 04:09:24;;;;;;;0.22;0.15;;;;;;;9.36;100.00;92904.50;2114445;28;20510;-80
2023/11/19 04:10:27;;;;;;;0.10;0.10;;;;;;;9.31;100.00;92889.72;2112156;28;20020;-77
2023/11/19 04:11:28;;;;;;;0.10;0.10;;;;;;;9.28;100.00;92887.88;2118250;27;20057;-80
2023/11/19 04:12:29;;;;;;;0.28;0.20;;;;;;;9.31;100.00;92886.31;2124060;27;20023;-81
2023/11/19 04:13:30;;;;;;;0.13;0.13;;;;;;;9.39;100.00;92882.31;2115049;28;20132;-80
2023/11/19 04:14:31;;;;;;;0.88;0.20;;;;;;;9.38;100.00;92886.16;2115181;28;20395;-78
2023/11/19 04:15:31;;;;;;;0.10;0.10;;;;;;;9.57;100.00;92897.97;2124065;27;20046;-78
2023/11/19 04:16:32;;;;;;;0.10;0.10;;;;;;;9.59;100.00;92868.94;2124248;27;20023;-80
2023/11/19 04:17:41;;;;;;;0.10;0.10;;;;;;;9.52;100.00;92882.44;2116297;27;20051;-81
2023/11/19 04:18:42;;;;;;;0.20;0.20;;;;;;;9.39;100.00;92898.31;2105490;28;20032;-82
2023/11/19 04:19:43;;;;;;;2.30;0.28;;;;;;;9.37;100.00;92895.31;2098294;28;20465;-80
2023/11/19 04:20:44;;;;;;;0.10;0.10;;;;;;;9.54;100.00;92906.78;2111111;28;20107;-80
2023/11/19 04:21:46;;;;;;;0.35;0.20;;;;;;;9.42;100.00;92902.09;2115625;28;20023;-80
2023/11/19 04:22:47;;;;;;;0.10;0.10;;;;;;;9.54;100.00;92904.13;2111791;28;20081;-80
2023/11/19 04:23:48;;;;;;;0.25;0.20;;;;;;;9.51;100.00;92902.28;2106257;28;20020;-79
2023/11/19 04:24:49;;;;;;;0.20;0.20;;;;;;;9.46;100.00;92910.78;2107282;28;20472;-79
2023/11/19 04:25:50;;;;;;;0.22;0.22;;;;;;;9.51;100.00;92911.03;2110129;28;20028;-81
2023/11/19 04:26:52;;;;;;;0.20;0.15;;;;;;;9.35;100.00;92911.00;2116226;27;20027;-81
2023/11/19 04:27:53;;;;;;;0.85;0.30;;;;;;;9.32;100.00;92885.91;2115254;27;20563;-80
2023/11/19 04:28:54;;;;;;;0.10;0.10;;;;;;;9.34;100.00;92886.22;2109079;28;20035;-78
2023/11/19 04:29:55;;;;;;;0.22;0.20;;;;;;;9.37;100.00;92890.00;2113442;28;20034;-80
2023/11/19 04:30:56;;;;;;;0.95;0.25;;;;;;;9.36;100.00;92899.16;2111516;28;20023;-79
2023/11/19 04:31:58;;;;;;;0.15;0.15;;;;;;;9.40;100.00;92883.84;2115003;28;20095;-78
2023/11/19 04:32:59;;;;;;;0.22;0.10;;;;;;;9.47;100.00;92869.59;2105863;28;20031;-80
2023/11/19 04:34:00;;;;;;;0.73;0.10;;;;;;;9.27;100.00;92873.06;2098174;28;20082;-82
2023/11/19 04:35:01;;;;;;;0.20;0.20;;;;;;;9.39;100.00;92898.31;2098167;28;20024;-81
2023/11/19 04:36:02;;;;;;;0.17;0.17;;;;;;;9.43;100.00;92939.00;2106703;28;20040;-80
2023/11/19 04:37:04;;;;;;;0.60;0.10;;;;;;;9.47;100.00;92928.28;2106329;28;20024;-80
2023/11/19 04:38:46;;;;;;;0.17;0.17;;;;;;;9.53;100.00;92919.38;2099227;28;20634;-81
2023/11/19 04:39:47;;;;;;;0.10;0.10;;;;;;;9.54;100.00;92920.13;2120716;27;20022;-83
2023/11/19 04:40:48;;;;;;;0.20;0.20;;;;;;;9.49;100.00;92920.63;2114908;28;20495;-82
2023/11/19 04:41:54;;;;;;;0.10;0.10;;;;;;;9.61;100.00;92916.53;2123303;27;20019;-82
2023/11/19 04:42:55;;;;;;;0.10;0.10;;;;;;;9.58;100.00;92907.47;2107187;28;20097;-78
2023/11/19 04:43:56;;;;;;;0.17;0.15;;;;;;;9.51;100.00;92903.03;2106353;28;20024;-79
2023/11/19 04:44:57;;;;;;;0.20;0.20;;;;;;;9.56;100.00;92894.53;2105840;28;20024;-79
2023/11/19 04:45:58;;;;;;;0.10;0.10;;;;;;;9.67;100.00;92894.31;2106330;28;20055;-80
2023/11/19 04:46:59;;;;;;;1.85;0.10;;;;;;;9.58;100.00;92902.88;2111995;27;20068;-79
2023/11/19 04:48:00;;;;;;;0.20;0.20;;;;;;;9.65;100.00;92896.63;2114635;28;20035;-78
2023/11/19 04:49:00;;;;;;;0.20;0.20;;;;;;;9.69;100.00;92891.22;2097944;28;20016;-83
2023/11/19 04:50:03;;;;;;;0.40;0.10;;;;;;;9.67;100.00;92874.88;2098788;28;20405;-79
2023/11/19 04:51:05;;;;;;;0.10;0.10;;;;;;;9.69;100.00;92880.53;2100977;28;20029;-80
2023/11/19 04:52:08;;;;;;;0.20;0.20;;;;;;;9.61;100.00;92873.84;2115144;28;20027;-81
2023/11/19 04:53:10;;;;;;;0.17;0.17;;;;;;;9.56;100.00;92870.50;2107226;28;20055;-85
2023/11/19 04:54:11;;;;;;;0.10;0.10;;;;;;;9.78;100.00;92878.03;2106447;28;20373;-81